GMMW

Nador International Airport

Nador, Morocco
TAF GMMW 212300Z 2200/2306 26007KT 8000 NSC PROB40 2200/2202 TS FEW030CB PROB40 2212/2306 28010G23KT BECMG 2300/2302 5000 -RA BKN020 BKN050
Issued Valid From Valid To
Jan-21 @ 23:00 UTC
(2 hours ago)
Jan-22 @ 00:00 UTC
(45 minutes ago)
Jan-23 @ 06:00 UTC
(-1 days ago)
Jan-22 @ 00:00 to Jan-23 @ 00:00
TAF GMMW 212300Z 2200/2306 26007KT 8000 NSC
Wind Visibility Clouds
260° at 7 knots 7,998 meters
  • No significant clouds
Probable  (Probability 40%) Jan-22 @ 00:00 to Jan-22 @ 02:00
PROB40 2200/2202 TS FEW030CB
Clouds Conditions
  • Few at 3,000' AGL
  • Thunderstorm
Probable  (Probability 40%) Jan-22 @ 12:00 to Jan-23 @ 06:00
PROB40 2212/2306 28010G23KT
Wind
280° at 10 knots
 Gusting to 23 knots
Becoming Jan-23 @ 00:00 to Jan-23 @ 06:00
BECMG 2300/2302 5000 -RA BKN020 BKN050
Wind Visibility Clouds Conditions
260° at 7 knots 5,005 meters
  • Broken at 2,000' AGL
  • Broken at 5,000' AGL
  • Light Rain
TAF GMMW 212300Z 2200/2306 26007KT 8000 NSC PROB40 2200/2202 TS FEW030CB PROB40 2212/2306 28010G23KT BECMG 2300/2302 5000 -RA BKN020 BKN050
Issued Jan-21 @ 23:00 UTC
(2 hours ago)
Valid From Jan-22 @ 00:00 UTC
(45 minutes ago)
Valid To Jan-23 @ 06:00 UTC
(-1 days ago)
Jan-22 @ 00:00 - Jan-23 @ 00:00
Wind Visibility
260° at 7 knots 7,998 meters
Clouds
  • No significant clouds
Probability 40% Probable Jan-22 @ 00:00 - Jan-22 @ 02:00
Clouds
  • Few at 3,000' AGL
Conditions
  • Thunderstorm
Probability 40% Probable Jan-22 @ 12:00 - Jan-23 @ 06:00
Wind
280° at 10 knots
 Gusting to 23 knots
Becoming Jan-23 @ 00:00 - Jan-23 @ 06:00
Wind Visibility
260° at 7 knots 5,005 meters
Clouds
  • Broken at 2,000' AGL
  • Broken at 5,000' AGL
Conditions
  • Light Rain